• Join FlightAware (Why Join?)
  • Login
  • US Flag 
04:03PM EST


 

Airport Tracker/Info


-or-


 

Live Flight TrackerFlight Track Log ✈ SWA896 ✈ 22-Apr-2013 ✈ KBUF - KLAS

Flight Track Log - Related Links

Times and Time Zones

All times are in EDT time to prevent confusion due to time zone crossing. See the SWA896 flight status page for this flight to view local times or setup timezone preferences in your user account.

Time Position Orientation Groundspeed Altitude Reporting Facility
EDT Latitude Longitude Course Direction KTS MPH feet Rate Location/Type
08:10AM 42.9167 -78.7500 270° West 169 194 2,000  Level Buffalo TRACON
08:10AM 42.9167 -78.7667 270° West 158 182 3,000 1,740 Climbing Buffalo TRACON
08:12AM 42.8242 -78.8281 206° Southwest 223 257 5,700 2,340 Climbing Cleveland Center
08:13AM 42.7456 -78.8642 199° South 254 292 9,200 2,520 Climbing Cleveland Center
08:14AM 42.6814 -78.8914 197° South 268 308 10,800 1,620 Climbing Cleveland Center
08:15AM 42.5903 -78.9361 200° South 307 353 12,500 2,160 Climbing Cleveland Center
08:16AM 42.4908 -78.9811 198° South 343 395 15,200 2,520 Climbing Cleveland Center
08:17AM 42.3872 -79.0286 199° South 382 440 17,600 2,040 Climbing Cleveland Center
08:18AM 42.2836 -79.0761 199° South 396 456 19,300 1,800 Climbing Cleveland Center
08:19AM 42.1931 -79.1567 213° Southwest 396 456 21,300 1,740 Climbing Cleveland Center
08:20AM 42.1822 -79.3139 265° West 362 417 22,800 1,500 Climbing Cleveland Center
08:21AM 42.1819 -79.4736 270° West 385 443 24,400 1,800 Climbing Cleveland Center
08:22AM 42.1792 -79.6531 269° West 428 493 26,500 1,620 Climbing Cleveland Center
08:23AM 42.1764 -79.8128 269° West 435 501 27,700 1,320 Climbing Cleveland Center
08:24AM 42.1753 -79.9781 270° West 440 506 29,200 1,380 Climbing Cleveland Center
08:25AM 42.1717 -80.1433 268° West 440 506 30,500 1,260 Climbing Cleveland Center
08:26AM 42.1681 -80.3003 268° West 440 506 31,800 1,260 Climbing Cleveland Center
08:27AM 42.1622 -80.4656 267° West 440 506 33,100 1,080 Climbing Cleveland Center
08:28AM 42.1581 -80.6222 268° West 440 506 34,000 420 Climbing Cleveland Center
08:29AM 42.1536 -80.7819 268° West 434 499 34,000  Level Cleveland Center
08:30AM 42.1492 -80.9417 268° West 434 499 34,000  Level Cleveland Center
08:31AM 42.1422 -81.0983 267° West 434 499 34,000  Level Cleveland Center
08:32AM 42.1394 -81.2553 269° West 427 491 34,000  Level Cleveland Center
08:33AM 42.1342 -81.4147 267° West 422 486 34,000  Level Cleveland Center
08:34AM 42.1308 -81.5714 268° West 422 486 34,000  Level Cleveland Center
08:35AM 42.1272 -81.7281 268° West 422 486 34,000  Level Cleveland Center
08:36AM 42.1256 -81.8850 269° West 422 486 34,000  Level Cleveland Center
08:37AM 42.1219 -82.0219 268° West 422 486 34,000  Level Cleveland Center
08:38AM 42.1175 -82.1983 268° West 422 486 34,000  Level Cleveland Center
08:39AM 42.1108 -82.3578 267° West 422 486 34,000  Level Cleveland Center
08:40AM 42.1083 -82.5172 269° West 422 486 34,000  Level Cleveland Center
08:41AM 42.1056 -82.6767 269° West 422 486 34,000  Level Cleveland Center
08:42AM 42.1025 -82.8361 269° West 422 486 34,000  Level Cleveland Center
08:43AM 42.0950 -82.9953 266° West 422 486 34,000  Level Cleveland Center
08:44AM 42.0917 -83.1575 268° West 422 486 34,000  Level Cleveland Center
08:45AM 42.0858 -83.3139 267° West 422 486 34,100 600 Climbing Cleveland Center
08:46AM 42.0800 -83.4731 267° West 422 486 35,200 900 Climbing Cleveland Center
08:47AM 42.0758 -83.6269 268° West 422 486 36,000 360 Climbing Cleveland Center
08:48AM 42.0725 -83.7528 268° West 422 486 36,000  Level Cleveland Center
08:49AM 42.0656 -83.9231 267° West 422 486 36,000  Level Cleveland Center
08:50AM 42.0589 -84.0792 267° West 422 486 36,000  Level Cleveland Center
08:51AM 42.0519 -84.2356 267° West 422 486 36,000  Level Cleveland Center
08:52AM 42.0506 -84.4033 269° West 417 480 36,000  Level Cleveland Center
08:53AM 42.0433 -84.5567 266° West 417 480 36,000  Level Cleveland Center
08:55AM 42.0269 -84.8869 266° West 408 470 36,000  Level Chicago Center
08:56AM 42.0192 -85.0403 266° West 409 471 36,000  Level Chicago Center
08:57AM 42.0111 -85.2194 267° West 404 465 36,000  Level Chicago Center
08:58AM 42.0039 -85.3706 266° West 405 466 36,000  Level Chicago Center
08:59AM 41.9967 -85.5100 266° West 410 472 36,000  Level Chicago Center
09:00AM 41.9875 -85.6906 266° West 410 472 36,000  Level Chicago Center
09:01AM 41.9794 -85.8431 266° West 413 475 36,000  Level Chicago Center
09:02AM 41.9714 -85.9939 266° West 408 470 36,000  Level Chicago Center
09:03AM 41.9625 -86.1456 266° West 409 471 36,000  Level Chicago Center
09:05AM 41.9539 -86.2967 266° West 409 471 36,000  Level Chicago Center
09:06AM 41.9450 -86.4467 265° West 406 467 36,000  Level Chicago Center
09:07AM 41.9350 -86.6269 266° West 406 467 36,000  Level Chicago Center
09:08AM 41.9253 -86.7872 265° West 406 467 36,000  Level Chicago Center
09:09AM 41.9156 -86.9369 265° West 406 467 36,000  Level Chicago Center
09:10AM 41.9044 -87.0878 264° West 409 471 36,000  Level Chicago Center
09:11AM 41.8961 -87.2392 266° West 409 471 36,000  Level Chicago Center
09:12AM 41.8853 -87.3897 265° West 409 471 36,000  Level Chicago Center
09:13AM 41.8731 -87.5392 264° West 408 470 36,000  Level Chicago Center
09:14AM 41.8611 -87.7186 265° West 408 470 36,000  Level Chicago Center
09:15AM 41.8508 -87.8664 265° West 404 465 36,000  Level Chicago Center
09:16AM 41.8397 -88.0139 264° West 404 465 36,000  Level Chicago Center
09:17AM 41.8289 -88.1608 264° West 403 464 36,000  Level Chicago Center
09:18AM 41.8158 -88.3372 264° West 402 463 36,000  Level Chicago Center
09:19AM 41.8047 -88.4856 264° West 403 464 36,000  Level Chicago Center
09:20AM 41.7928 -88.6306 264° West 398 458 36,000  Level Chicago Center
09:21AM 41.7822 -88.7781 265° West 401 461 36,000  Level Chicago Center
09:22AM 41.7694 -88.9281 264° West 406 467 36,000  Level Chicago Center
09:23AM 41.7550 -89.1050 264° West 404 465 36,000  Level Chicago Center
09:24AM 41.7433 -89.2553 264° West 407 468 36,000  Level Chicago Center
09:25AM 41.7306 -89.4042 263° West 406 467 36,000  Level Chicago Center
09:26AM 41.7169 -89.5617 263° West 403 464 36,000  Level Chicago Center
09:27AM 41.7036 -89.7117 263° West 408 470 36,000  Level Chicago Center
09:28AM 41.6903 -89.8633 263° West 411 473 36,000  Level Chicago Center
09:29AM 41.6761 -90.0161 263° West 416 479 36,000  Level Chicago Center
09:30AM 41.6633 -90.1669 264° West 410 472 36,000  Level Chicago Center
09:31AM 41.6450 -90.3489 262° West 417 480 36,000  Level Chicago Center
09:32AM 41.6314 -90.4942 263° West 401 461 36,000  Level Chicago Center
09:33AM 41.6186 -90.6269 263° West 402 463 36,000  Level Chicago Center
09:34AM 41.6014 -90.8028 263° West 401 461 36,000  Level Chicago Center
09:36AM 41.5867 -90.9514 263° West 404 465 36,000  Level Chicago Center
09:37AM 41.5725 -91.0978 263° West 401 461 36,000  Level Chicago Center
09:38AM 41.5572 -91.2458 262° West 403 464 36,000  Level Chicago Center
09:39AM 41.5417 -91.3944 262° West 405 466 36,000  Level Chicago Center
09:40AM 41.5247 -91.5692 263° West 401 461 36,000  Level Chicago Center
09:41AM 41.5092 -91.7175 262° West 403 464 36,000  Level Chicago Center
09:42AM 41.4958 -91.8628 263° West 401 461 36,000  Level Chicago Center
09:43AM 41.4814 -92.0103 263° West 402 463 36,000  Level Chicago Center
09:44AM 41.4678 -92.1572 263° West 403 464 36,000  Level Chicago Center
09:45AM 41.4531 -92.3047 262° West 404 465 36,000  Level Chicago Center
09:46AM 41.4364 -92.4644 262° West 400 460 36,000  Level Chicago Center
09:47AM 41.4211 -92.6094 262° West 399 459 36,000  Level Chicago Center
09:47AM 41.4131 -92.6983 263° West 398 458 36,000  Level Minneapolis Center
09:48AM 41.3978 -92.8422 262° West 397 457 36,000  Level Minneapolis Center
09:49AM 41.3825 -92.9886 262° West 400 460 36,000  Level Minneapolis Center
09:50AM 41.3669 -93.1339 262° West 401 461 36,000  Level Minneapolis Center
09:51AM 41.3514 -93.2808 262° West 404 465 36,000  Level Minneapolis Center
09:52AM 41.3353 -93.4300 262° West 409 471 36,000  Level Minneapolis Center
09:53AM 41.3189 -93.5778 262° West 409 471 36,000  Level Minneapolis Center
09:54AM 41.3003 -93.7550 262° West 410 472 36,000  Level Minneapolis Center
09:55AM 41.2833 -93.9019 261° West 408 470 36,000  Level Minneapolis Center
09:57AM 41.2669 -94.0481 262° West 405 466 36,000  Level Minneapolis Center
09:58AM 41.2508 -94.1925 262° West 402 463 36,000  Level Minneapolis Center
09:59AM 41.2314 -94.3525 261° West 404 465 36,000  Level Minneapolis Center
10:00AM 41.2136 -94.5008 261° West 406 467 36,000  Level Minneapolis Center
10:01AM 41.1967 -94.6461 261° West 401 461 36,000  Level Minneapolis Center
10:02AM 41.1789 -94.7919 261° West 400 460 36,000  Level Minneapolis Center
10:03AM 41.1611 -94.9372 261° West 399 459 36,000  Level Minneapolis Center
10:04AM 41.1428 -95.0817 260° West 397 457 36,000  Level Minneapolis Center
10:05AM 41.1244 -95.2261 260° West 396 456 36,000  Level Minneapolis Center
10:06AM 41.1069 -95.3689 261° West 393 452 36,000  Level Minneapolis Center
10:07AM 41.0850 -95.5392 260° West 389 448 36,000  Level Minneapolis Center
10:08AM 41.0664 -95.6806 260° West 387 445 36,000  Level Minneapolis Center
10:09AM 41.0483 -95.8219 260° West 387 445 36,000  Level Minneapolis Center
10:10AM 41.0289 -95.9631 260° West 386 444 36,000  Level Minneapolis Center
10:11AM 40.9944 -96.1006 252° West 388 447 36,000  Level Minneapolis Center
10:12AM 40.9586 -96.2381 251° West 392 451 36,000  Level Minneapolis Center
10:13AM 40.9236 -96.3750 251° West 392 451 36,000  Level Minneapolis Center
10:14AM 40.8875 -96.5122 251° West 393 452 36,000  Level Minneapolis Center
10:15AM 40.8514 -96.6500 251° West 395 455 36,000  Level Minneapolis Center
10:16AM 40.8153 -96.7892 251° West 399 459 36,000  Level Minneapolis Center
10:17AM 40.7769 -96.9281 250° West 401 461 36,000  Level Minneapolis Center
10:18AM 40.7417 -97.0694 252° West 405 466 36,000  Level Minneapolis Center
10:19AM 40.7031 -97.2092 250° West 405 466 36,000  Level Minneapolis Center
10:20AM 40.6608 -97.3697 251° West 405 466 36,000  Level Minneapolis Center
10:21AM 40.6211 -97.5089 249° West 404 465 36,000  Level Minneapolis Center
10:22AM 40.5839 -97.6481 251° West 403 464 36,000  Level Minneapolis Center
10:23AM 40.5456 -97.7889 250° West 407 468 36,000  Level Minneapolis Center
10:24AM 40.5067 -97.9283 250° West 406 467 36,000  Level Minneapolis Center
10:25AM 40.4689 -98.0689 251° West 407 468 36,000  Level Minneapolis Center
10:26AM 40.4286 -98.2078 249° West 406 467 36,000  Level Minneapolis Center
10:27AM 40.3486 -98.3533 234° Southwest 409 471 36,000  Level Minneapolis Center
10:28AM 40.2778 -98.4725 232° Southwest 411 473 36,000  Level Minneapolis Center
10:29AM 40.2056 -98.5889 231° Southwest 410 472 36,000  Level Minneapolis Center
10:30AM 40.1411 -98.7131 236° Southwest 412 474 36,000  Level Minneapolis Center
10:31AM 40.0831 -98.8431 240° Southwest 413 475 36,000  Level Minneapolis Center
10:32AM 40.0278 -98.9725 241° Southwest 410 472 36,000  Level Minneapolis Center
10:33AM 39.9731 -99.1000 241° Southwest 407 468 36,000  Level Minneapolis Center
10:34AM 39.9217 -99.2289 243° Southwest 403 464 36,000  Level Minneapolis Center
10:35AM 39.8750 -99.3592 245° Southwest 398 458 36,000  Level Minneapolis Center
10:36AM 39.8294 -99.4889 245° Southwest 394 453 36,000  Level Minneapolis Center
10:37AM 39.7828 -99.6472 249° West 391 450 36,000  Level Minneapolis Center
10:38AM 39.7447 -99.7800 250° West 390 449 36,000  Level Minneapolis Center
10:40AM 39.7050 -99.9111 249° West 390 449 36,000  Level Minneapolis Center
10:41AM 39.6653 -100.0436 249° West 391 450 36,000  Level Minneapolis Center
10:41AM 39.6550 -100.0683 242° Southwest 388 447 36,000  Level Denver Center
10:42AM 39.6269 -100.2214 257° West 392 451 36,000  Level Denver Center
10:43AM 39.6089 -100.3517 260° West 387 445 36,000  Level Denver Center
10:44AM 39.5869 -100.5022 259° West 382 440 36,000  Level Denver Center
10:45AM 39.5681 -100.6314 259° West 381 438 36,000  Level Denver Center
10:46AM 39.5503 -100.7594 260° West 379 436 36,000  Level Denver Center
10:47AM 39.5286 -100.9050 259° West 370 426 36,000  Level Denver Center
10:48AM 39.5100 -101.0325 259° West 373 429 36,000  Level Denver Center
10:49AM 39.4878 -101.1797 259° West 372 428 36,000  Level Denver Center
10:50AM 39.4689 -101.3069 259° West 375 432 36,000  Level Denver Center
10:51AM 39.4475 -101.4547 259° West 375 432 36,000  Level Denver Center
10:52AM 39.4272 -101.5817 258° West 377 434 36,000  Level Denver Center
10:53AM 39.4047 -101.7286 259° West 373 429 36,000  Level Denver Center
10:54AM 39.3856 -101.8536 259° West 371 427 36,000  Level Denver Center
10:55AM 39.3631 -101.9972 259° West 368 423 36,000  Level Denver Center
10:56AM 39.3483 -102.1014 260° West 368 423 36,000  Level Denver Center
10:57AM 39.3208 -102.2569 257° West 365 420 36,000  Level Denver Center
10:58AM 39.3025 -102.3783 259° West 363 418 36,000  Level Denver Center
10:59AM 39.2783 -102.5233 258° West 369 425 36,000  Level Denver Center
11:00AM 39.2583 -102.6453 258° West 366 421 36,000  Level Denver Center
11:01AM 39.2375 -102.7811 259° West 367 422 36,000  Level Denver Center
11:03AM 39.2156 -102.9119 258° West 370 426 36,000  Level Denver Center
11:04AM 39.1978 -103.0211 258° West 370 426 36,000  Level Denver Center
11:05AM 39.1678 -103.1942 257° West 368 423 36,000  Level Denver Center
11:06AM 39.1467 -103.3250 258° West 370 426 36,000  Level Denver Center
11:07AM 39.1250 -103.4542 258° West 367 422 36,000  Level Denver Center
11:08AM 39.1022 -103.5833 257° West 366 421 36,000  Level Denver Center
11:09AM 39.0800 -103.7125 258° West 366 421 36,000  Level Denver Center
11:10AM 39.0575 -103.8419 257° West 366 421 36,000  Level Denver Center
11:11AM 39.0339 -103.9728 257° West 369 425 36,000  Level Denver Center
11:12AM 39.0117 -104.1033 258° West 370 426 36,000  Level Denver Center
11:13AM 38.9839 -104.2572 257° West 375 432 36,000  Level Denver Center
11:15AM 38.9336 -104.5433 257° West 376 433 36,000  Level Denver Center
11:16AM 38.9089 -104.6750 256° West 374 430 36,000  Level Denver Center
11:17AM 38.8853 -104.8050 257° West 371 427 36,000  Level Denver Center
11:18AM 38.8606 -104.9386 257° West 377 434 36,000  Level Denver Center
11:19AM 38.8361 -105.0725 257° West 381 438 36,000  Level Denver Center
11:20AM 38.8075 -105.2250 257° West 375 432 36,000  Level Denver Center
11:21AM 38.7828 -105.3556 256° West 373 429 36,000  Level Denver Center
11:22AM 38.7586 -105.4842 256° West 368 423 36,000  Level Denver Center
11:23AM 38.7339 -105.6142 256° West 370 426 36,000  Level Denver Center
11:24AM 38.7092 -105.7425 256° West 370 426 36,000  Level Denver Center
11:25AM 38.6847 -105.8706 256° West 368 423 36,000  Level Denver Center
11:26AM 38.6597 -105.9983 256° West 367 422 36,000  Level Denver Center
11:28AM 38.6306 -106.1469 256° West 367 422 36,000  Level Denver Center
11:29AM 38.6061 -106.2725 256° West 364 419 36,000  Level Denver Center
11:30AM 38.5808 -106.3981 256° West 363 418 36,000  Level Denver Center
11:31AM 38.5558 -106.5228 256° West 362 417 36,000  Level Denver Center
11:32AM 38.5308 -106.6467 256° West 360 414 36,000  Level Denver Center
11:33AM 38.5067 -106.7714 256° West 358 412 36,000  Level Denver Center
11:34AM 38.4803 -106.8967 255° West 362 417 36,000  Level Denver Center
11:35AM 38.4556 -107.0214 256° West 360 414 36,000  Level Denver Center
11:36AM 38.4167 -107.1450 248° West 374 430 36,000  Level Denver Center
11:37AM 38.3689 -107.2897 247° West 372 428 36,000  Level Denver Center
11:38AM 38.3300 -107.4056 247° West 370 426 36,000  Level Denver Center
11:39AM 38.2847 -107.5408 247° West 371 427 36,000  Level Denver Center
11:40AM 38.2475 -107.6556 248° West 367 422 36,000  Level Denver Center
11:41AM 38.2019 -107.7892 247° West 368 423 36,000  Level Denver Center
11:42AM 38.1628 -107.9047 247° West 371 427 36,000  Level Denver Center
11:43AM 38.1178 -108.0389 247° West 371 427 36,000  Level Denver Center
11:44AM 38.0783 -108.1533 246° West 370 426 36,000  Level Denver Center
11:45AM 38.0339 -108.2808 246° West 372 428 36,000  Level Denver Center
11:46AM 37.9936 -108.3983 247° West 377 434 36,000  Level Denver Center
11:47AM 37.9567 -108.5350 251° West 371 427 36,000  Level Denver Center
11:48AM 37.9300 -108.6572 255° West 374 430 36,000  Level Denver Center
11:49AM 37.8981 -108.7983 254° West 374 430 36,000  Level Denver Center
11:50AM 37.8625 -108.9558 254° West 367 422 36,000  Level Denver Center
11:52AM 37.8353 -109.0769 254° West 371 427 36,000  Level Denver Center
11:53AM 37.8031 -109.2194 254° West 376 433 36,000  Level Denver Center
11:54AM 37.7753 -109.3433 254° West 383 441 36,000  Level Denver Center
11:55AM 37.7514 -109.4442 253° West 379 436 36,000  Level Denver Center
11:56AM 37.7139 -109.6103 254° West 386 444 36,000  Level Denver Center
11:57AM 37.6853 -109.7328 254° West 383 441 36,000  Level Denver Center
11:58AM 37.6517 -109.8753 253° West 379 436 36,000  Level Denver Center
11:59AM 37.6231 -109.9986 254° West 381 438 36,000  Level Denver Center
12:00PM 37.5928 -110.1219 253° West 383 441 36,000  Level Denver Center
12:01PM 37.5536 -110.2861 253° West 383 441 36,000  Level Denver Center
12:02PM 37.5242 -110.4097 253° West 385 443 36,000  Level Denver Center
12:03PM 37.4914 -110.5486 253° West 385 443 36,000 -480 Level Denver Center
12:04PM 37.4600 -110.6783 253° West 386 444 35,100 -960 Descending Denver Center
12:05PM 37.4294 -110.8067 253° West 385 443 34,100 -1,020 Descending Denver Center
12:06PM 37.3983 -110.9328 253° West 378 435 33,100 -1,020 Descending Denver Center
12:07PM 37.3681 -111.0542 253° West 367 422 32,100 -540 Descending Denver Center
12:08PM 37.3319 -111.2036 253° West 374 430 32,000 -60 Descending Denver Center
12:09PM 37.3000 -111.3325 253° West 385 443 32,000  Level Denver Center
12:10PM 37.2672 -111.4600 252° West 384 442 32,000  Level Denver Center
12:11PM 37.2350 -111.5869 252° West 382 440 32,000  Level Denver Center
12:12PM 37.2053 -111.7147 254° West 382 440 32,000  Level Denver Center
12:13PM 37.1739 -111.8414 253° West 378 435 32,000  Level Denver Center
12:14PM 37.1567 -111.8964 249° West 387 445 32,000  Level Los Angeles Center
12:15PM 37.1236 -112.0261 252° West 391 450 32,000  Level Los Angeles Center
12:16PM 37.0903 -112.1558 252° West 390 449 32,000  Level Los Angeles Center
12:17PM 37.0558 -112.2856 252° West 392 451 32,000  Level Los Angeles Center
12:18PM 37.0231 -112.4150 252° West 390 449 32,000  Level Los Angeles Center
12:19PM 36.9892 -112.5456 252° West 392 451 32,000  Level Los Angeles Center
12:20PM 36.9469 -112.7028 251° West 396 456 32,000  Level Los Angeles Center
12:21PM 36.9133 -112.8331 252° West 394 453 32,000  Level Los Angeles Center
12:22PM 36.8783 -112.9636 252° West 395 455 32,000  Level Los Angeles Center
12:23PM 36.8439 -113.0947 252° West 396 456 32,000  Level Los Angeles Center
12:24PM 36.8086 -113.2261 251° West 397 457 32,000 -780 Level Los Angeles Center
12:25PM 36.7742 -113.3572 252° West 397 457 30,500 -1,980 Descending Los Angeles Center
12:26PM 36.7331 -113.5069 251° West 385 443 28,000 -2,220 Descending Los Angeles Center
12:27PM 36.6936 -113.6253 247° West 375 432 26,000 -2,040 Descending Los Angeles Center
12:28PM 36.6506 -113.7475 246° West 381 438 23,900 -2,040 Descending Los Angeles Center
12:29PM 36.6094 -113.8669 247° West 380 437 21,800 -1,980 Descending Los Angeles Center
12:30PM 36.5711 -113.9800 247° West 364 419 19,900 -1,800 Descending Los Angeles Center
12:31PM 36.5328 -114.0850 246° West 344 396 18,100 -1,800 Descending Los Angeles Center
12:32PM 36.4961 -114.1903 247° West 330 380 16,200 -1,980 Descending Los Angeles Center
12:33PM 36.4683 -114.2806 249° West 319 367 14,700 -2,040 Descending Los Angeles Center
12:33PM 36.4542 -114.3103 239° Southwest 317 365 14,100 -1,680 Descending Los Angeles Center
12:34PM 36.4203 -114.4072 247° West 309 356 12,400 -1,020 Descending Los Angeles Center
12:35PM 36.3717 -114.4850 232° Southwest 304 350 12,000 -840 Descending Los Angeles Center
12:36PM 36.2875 -114.5269 202° Southwest 304 350 10,700 -1,200 Descending Los Angeles Center
12:37PM 36.2372 -114.6028 231° Southwest 285 328 9,600 -1,140 Descending Los Angeles Center
12:38PM 36.1944 -114.6731 233° Southwest 278 320 8,600 -1,080 Descending Los Angeles Center
12:39PM 36.1481 -114.7475 232° Southwest 273 314 7,600 -720 Descending Los Angeles Center
12:40PM 36.0975 -114.8311 233° Southwest 268 308 7,200 -900 Descending Los Angeles Center
12:41PM 36.0747 -114.9094 250° West 260 299 5,700 -1,380 Descending Los Angeles Center
12:43PM 36.0739 -114.9856 269° West 235 270 4,300 -1,200 Descending Los Angeles Center
12:43PM 36.0733 -115.0467 269° West 185 213 3,400 -900 Descending Los Angeles Center
12:45PM 36.0742 -115.1036 271° West 183 211 2,500 -780 Descending Los Angeles Center
12:46PM 36.0667 -115.1500 219° Southwest  Level FlightAware Approximate
12:53PM 36.0801 -115.1523 219° Southwest  Level Estimated